Time;durP1;ratioP1;P1;durP2;ratioP2;P2;SDS_P1;SDS_P2;PMS_P1;PMS_P2;Temp;Humidity;BMP_temperature;BMP_pressure;BME280_temperature;BME280_humidity;BME280_pressure;Samples;Min_cycle;Max_cycle;Signal;HPM_P1;HPM_P2
2023/10/30 00:01:25;;;;;;;3.23;1.03;;;14.30;99.90;;;;;;4941310;28;20089;-24
2023/10/30 00:03:52;;;;;;;5.03;1.00;;;14.30;99.90;;;;;;4959209;28;20039;-24
2023/10/30 00:06:17;;;;;;;5.07;0.90;;;14.40;99.90;;;;;;4940911;28;20775;-24
2023/10/30 00:08:43;;;;;;;3.43;0.80;;;14.30;99.90;;;;;;4943748;28;20027;-24
2023/10/30 00:11:09;;;;;;;2.45;0.65;;;14.30;99.90;;;;;;4947616;28;20035;-24
2023/10/30 00:13:35;;;;;;;2.03;0.60;;;14.40;99.90;;;;;;4935901;28;20050;-24
2023/10/30 00:16:00;;;;;;;2.28;0.70;;;14.00;99.90;;;;;;4931556;28;20031;-24
2023/10/30 00:18:28;;;;;;;3.70;0.70;;;14.40;99.90;;;;;;4944734;28;20062;-24
2023/10/30 00:20:53;;;;;;;3.10;1.33;;;14.40;99.90;;;;;;4955035;28;20040;-24
2023/10/30 00:23:19;;;;;;;1.75;0.65;;;14.40;99.90;;;;;;4933541;28;20153;-24
2023/10/30 00:25:45;;;;;;;3.83;1.10;;;14.30;99.90;;;;;;4950064;28;20040;-22
2023/10/30 00:28:11;;;;;;;3.67;1.00;;;14.30;99.90;;;;;;4911455;28;20291;-22
2023/10/30 00:30:37;;;;;;;3.05;0.70;;;14.40;99.90;;;;;;4953788;28;20371;-22
2023/10/30 00:33:03;;;;;;;2.60;0.60;;;14.40;99.90;;;;;;4937863;28;20035;-22
2023/10/30 00:35:28;;;;;;;2.90;0.70;;;14.40;99.90;;;;;;4946727;28;20031;-22
2023/10/30 00:37:54;;;;;;;2.33;0.77;;;14.30;99.90;;;;;;4940930;28;20114;-22
2023/10/30 00:40:20;;;;;;;3.73;0.90;;;14.40;99.90;;;;;;4935857;28;20070;-22
2023/10/30 00:42:46;;;;;;;3.53;0.95;;;14.40;99.90;;;;;;4947741;28;20667;-22
2023/10/30 00:45:12;;;;;;;3.42;0.93;;;14.40;99.90;;;;;;4936467;28;20024;-22
2023/10/30 00:47:39;;;;;;;2.53;0.73;;;14.40;99.90;;;;;;4935181;28;20391;-22
2023/10/30 00:50:07;;;;;;;3.72;1.02;;;14.40;99.90;;;;;;4937197;28;20035;-22
2023/10/30 00:52:33;;;;;;;3.72;1.10;;;14.40;99.90;;;;;;4939523;28;20567;-22
2023/10/30 00:54:59;;;;;;;4.97;1.17;;;14.40;99.90;;;;;;4947558;28;20047;-22
2023/10/30 00:57:24;;;;;;;2.10;0.80;;;14.40;99.90;;;;;;4945216;28;20110;-22
2023/10/30 00:59:50;;;;;;;2.55;0.90;;;14.40;99.90;;;;;;4920814;28;20035;-22
2023/10/30 01:02:16;;;;;;;3.13;0.93;;;14.50;99.90;;;;;;4939980;28;20030;-22
2023/10/30 01:04:42;;;;;;;4.88;1.00;;;14.40;99.90;;;;;;4932614;28;20023;-22
2023/10/30 01:07:07;;;;;;;2.67;0.90;;;14.40;99.90;;;;;;4938848;28;20035;-22
2023/10/30 01:09:33;;;;;;;5.00;1.13;;;14.50;99.90;;;;;;4946238;28;20353;-22
2023/10/30 01:11:59;;;;;;;3.27;0.80;;;14.40;99.90;;;;;;4928187;28;20426;-22
2023/10/30 01:14:25;;;;;;;4.78;1.00;;;14.40;99.90;;;;;;4925180;28;20049;-22
2023/10/30 01:16:51;;;;;;;2.30;0.95;;;14.40;99.90;;;;;;4911273;28;20183;-24
2023/10/30 01:19:17;;;;;;;3.90;1.03;;;14.40;99.90;;;;;;4958251;28;20126;-24
2023/10/30 01:21:44;;;;;;;3.17;0.88;;;14.40;99.90;;;;;;4933666;28;20333;-24
2023/10/30 01:24:10;;;;;;;2.85;0.90;;;16.20;99.90;;;;;;4947164;28;20476;-24
2023/10/30 01:26:35;;;;;;;3.10;0.97;;;14.40;99.90;;;;;;4933413;28;20356;-24
2023/10/30 01:29:01;;;;;;;3.63;0.90;;;14.50;99.90;;;;;;4950585;28;20027;-24
2023/10/30 01:31:27;;;;;;;2.80;1.00;;;14.40;99.90;;;;;;4917011;28;20043;-24
2023/10/30 01:33:57;;;;;;;4.40;1.08;;;14.50;99.90;;;;;;4947095;28;20520;-23
2023/10/30 01:36:23;;;;;;;2.97;1.00;;;14.40;99.90;;;;;;4933375;28;20026;-22
2023/10/30 01:38:49;;;;;;;2.78;0.90;;;14.40;99.90;;;;;;4941044;28;20034;-22
2023/10/30 01:41:15;;;;;;;3.08;0.90;;;14.40;99.90;;;;;;4945868;28;20257;-22
2023/10/30 01:43:41;;;;;;;1.87;0.70;;;14.40;99.90;;;;;;4937604;28;20513;-22
2023/10/30 01:46:06;;;;;;;1.75;0.68;;;14.40;99.90;;;;;;4924842;28;20583;-22
2023/10/30 01:48:34;;;;;;;2.50;0.70;;;14.40;99.90;;;;;;4945687;28;20802;-22
2023/10/30 01:51:02;;;;;;;2.00;0.65;;;14.10;99.90;;;;;;4932301;28;20493;-22
2023/10/30 01:53:31;;;;;;;2.33;0.80;;;14.30;99.90;;;;;;4956234;28;20061;-22
2023/10/30 01:55:58;;;;;;;3.13;0.60;;;14.40;99.90;;;;;;4954944;28;20444;-24
2023/10/30 01:58:24;;;;;;;2.00;0.90;;;14.30;99.90;;;;;;4948507;28;20429;-23
2023/10/30 02:00:53;;;;;;;2.10;0.73;;;14.30;99.90;;;;;;4919537;28;20416;-23
2023/10/30 02:03:19;;;;;;;1.52;0.63;;;14.30;99.90;;;;;;4932174;28;20027;-23
2023/10/30 02:05:45;;;;;;;3.50;0.80;;;14.30;99.90;;;;;;4942171;28;20307;-23
2023/10/30 02:08:12;;;;;;;2.77;0.83;;;14.30;99.90;;;;;;4933351;28;22139;-24
2023/10/30 02:10:38;;;;;;;3.17;0.75;;;14.20;99.90;;;;;;4938465;28;20121;-23
2023/10/30 02:13:06;;;;;;;2.85;0.70;;;14.20;99.90;;;;;;4956748;28;20620;-23
2023/10/30 02:15:32;;;;;;;1.60;0.88;;;14.20;99.90;;;;;;4905437;28;20627;-23
2023/10/30 02:17:58;;;;;;;2.73;0.77;;;14.20;99.90;;;;;;4950777;28;20485;-23
2023/10/30 02:20:24;;;;;;;2.38;0.80;;;14.20;99.90;;;;;;4945815;28;20090;-23
2023/10/30 02:22:50;;;;;;;1.98;0.60;;;14.20;99.90;;;;;;4959610;28;20054;-23
2023/10/30 02:25:22;;;;;;;5.00;1.00;;;14.20;99.90;;;;;;4939413;28;20035;-23
2023/10/30 02:27:52;;;;;;;1.50;0.70;;;14.20;99.90;;;;;;4945978;28;20114;-23
2023/10/30 02:30:18;;;;;;;2.17;0.70;;;14.20;99.90;;;;;;4923872;28;20396;-24
2023/10/30 02:32:45;;;;;;;2.60;0.60;;;14.20;99.90;;;;;;4921919;28;20133;-24
2023/10/30 02:35:17;;;;;;;1.77;0.70;;;14.20;99.90;;;;;;4947441;28;20042;-23
2023/10/30 02:37:47;;;;;;;2.33;1.08;;;14.20;99.90;;;;;;4964186;28;20143;-23
2023/10/30 02:40:13;;;;;;;0.80;0.50;;;14.10;99.90;;;;;;4919160;28;20337;-24
2023/10/30 02:42:39;;;;;;;1.55;0.73;;;14.20;99.90;;;;;;4947416;28;20019;-24
2023/10/30 02:45:06;;;;;;;2.65;0.70;;;14.10;99.90;;;;;;4935692;28;20106;-24
2023/10/30 02:47:33;;;;;;;2.80;0.70;;;14.10;99.90;;;;;;4906833;28;20083;-23
2023/10/30 02:49:58;;;;;;;1.67;0.60;;;14.10;99.90;;;;;;4944788;28;20035;-24
2023/10/30 02:52:24;;;;;;;3.80;1.00;;;14.10;99.90;;;;;;4954907;28;20520;-23
2023/10/30 02:54:50;;;;;;;2.13;0.63;;;14.10;99.90;;;;;;4950220;28;20097;-24
2023/10/30 02:57:16;;;;;;;5.33;1.00;;;14.10;99.90;;;;;;4945096;28;20027;-22
2023/10/30 02:59:42;;;;;;;2.58;0.60;;;14.10;99.90;;;;;;4935171;28;20223;-22
2023/10/30 03:02:08;;;;;;;2.70;0.70;;;14.10;99.90;;;;;;4944065;28;20027;-22
2023/10/30 03:04:34;;;;;;;1.23;0.60;;;14.10;99.90;;;;;;4902511;28;20664;-22
2023/10/30 03:07:00;;;;;;;2.40;0.70;;;14.00;99.90;;;;;;4963533;28;20022;-23
2023/10/30 03:09:30;;;;;;;2.92;0.60;;;14.00;99.90;;;;;;4952826;28;20043;-23
2023/10/30 03:11:56;;;;;;;1.50;0.60;;;14.00;99.90;;;;;;4945427;28;20113;-24
2023/10/30 03:14:22;;;;;;;3.30;0.70;;;14.00;99.90;;;;;;4939940;28;20054;-24
2023/10/30 03:16:47;;;;;;;2.85;0.55;;;13.90;99.90;;;;;;4948396;28;20156;-23
2023/10/30 03:19:13;;;;;;;2.37;0.50;;;13.90;99.90;;;;;;4914673;28;20048;-23
2023/10/30 03:21:39;;;;;;;4.13;0.80;;;13.90;99.90;;;;;;4929805;28;20886;-24
2023/10/30 03:24:05;;;;;;;2.23;1.00;;;13.90;99.90;;;;;;4946191;28;20584;-24
2023/10/30 03:26:31;;;;;;;3.45;0.70;;;13.90;99.90;;;;;;4931641;28;20389;-22
2023/10/30 03:28:57;;;;;;;2.45;0.60;;;13.80;99.90;;;;;;4944512;28;20034;-22
2023/10/30 03:31:23;;;;;;;1.63;0.50;;;13.80;99.90;;;;;;4932611;28;20027;-22
2023/10/30 03:33:48;;;;;;;1.60;0.55;;;13.80;99.90;;;;;;4959156;28;20778;-22
2023/10/30 03:36:22;;;;;;;3.85;0.57;;;13.80;99.90;;;;;;4921653;28;20094;-22
2023/10/30 03:38:50;;;;;;;1.13;0.60;;;13.70;99.90;;;;;;4957858;28;20038;-22
2023/10/30 03:41:16;;;;;;;3.17;0.60;;;13.70;99.90;;;;;;4950627;28;20031;-22
2023/10/30 03:43:42;;;;;;;1.25;0.60;;;13.70;99.90;;;;;;4946446;28;20083;-22
2023/10/30 03:46:07;;;;;;;1.83;0.50;;;13.70;99.90;;;;;;4931763;28;20396;-22
2023/10/30 03:48:33;;;;;;;3.10;0.70;;;13.70;99.90;;;;;;4955150;28;20453;-22
2023/10/30 03:50:59;;;;;;;2.40;0.60;;;13.70;99.90;;;;;;4924083;28;20030;-22
2023/10/30 03:53:25;;;;;;;2.73;0.80;;;13.60;99.90;;;;;;4931262;28;20348;-22
2023/10/30 03:55:51;;;;;;;2.35;0.60;;;13.60;99.90;;;;;;4965652;28;20035;-22
2023/10/30 03:58:17;;;;;;;2.28;0.90;;;13.60;99.90;;;;;;4936571;28;20027;-22
2023/10/30 04:00:43;;;;;;;1.10;0.53;;;13.60;99.90;;;;;;4948469;28;20029;-22
2023/10/30 04:03:09;;;;;;;2.55;0.70;;;13.50;99.90;;;;;;4931815;28;20051;-22
2023/10/30 04:05:34;;;;;;;2.75;0.60;;;13.50;99.90;;;;;;4944493;28;20043;-22
2023/10/30 04:08:01;;;;;;;0.90;0.40;;;13.50;99.90;;;;;;4904951;28;20035;-22
2023/10/30 04:10:27;;;;;;;2.83;0.60;;;13.50;99.90;;;;;;4947675;28;20086;-22
2023/10/30 04:12:53;;;;;;;1.73;0.50;;;13.50;99.90;;;;;;4935073;28;20035;-22
2023/10/30 04:15:18;;;;;;;3.03;0.80;;;13.50;99.90;;;;;;4956123;28;20197;-22
2023/10/30 04:17:45;;;;;;;2.90;0.60;;;13.50;99.90;;;;;;4933629;28;20295;-22
2023/10/30 04:20:11;;;;;;;3.30;0.60;;;13.50;99.90;;;;;;4939945;28;20042;-22
2023/10/30 04:22:37;;;;;;;3.40;0.68;;;13.40;99.90;;;;;;4907126;28;20114;-22
2023/10/30 04:25:06;;;;;;;2.50;0.67;;;13.10;99.90;;;;;;4940135;28;20041;-22
2023/10/30 04:27:33;;;;;;;2.15;0.70;;;13.40;99.90;;;;;;4946164;28;20026;-22
2023/10/30 04:29:59;;;;;;;3.13;0.70;;;13.40;99.90;;;;;;4954066;28;20456;-22
2023/10/30 04:32:25;;;;;;;1.08;0.50;;;13.40;99.90;;;;;;4956406;28;20232;-22
2023/10/30 04:34:50;;;;;;;2.47;0.60;;;13.40;99.90;;;;;;4937677;28;20401;-22
2023/10/30 04:37:18;;;;;;;2.00;0.73;;;13.40;99.90;;;;;;4919592;28;20027;-24
2023/10/30 04:39:44;;;;;;;1.08;0.50;;;13.20;99.90;;;;;;4947904;28;20102;-24
2023/10/30 04:42:09;;;;;;;4.93;0.77;;;13.30;99.90;;;;;;4943284;28;20035;-24
2023/10/30 04:44:35;;;;;;;2.95;0.98;;;13.30;99.90;;;;;;4937738;28;20031;-24
2023/10/30 04:47:01;;;;;;;2.63;0.93;;;13.30;99.90;;;;;;4913959;28;20038;-23
2023/10/30 04:49:27;;;;;;;2.80;0.70;;;13.30;99.90;;;;;;4936106;28;20033;-24
2023/10/30 04:51:52;;;;;;;2.10;0.53;;;12.40;99.90;;;;;;4941023;28;20114;-24
2023/10/30 04:54:18;;;;;;;3.15;0.60;;;13.30;99.90;;;;;;4913619;28;20213;-23
2023/10/30 04:56:44;;;;;;;1.80;0.70;;;13.30;99.90;;;;;;4931787;28;20102;-24
2023/10/30 04:59:09;;;;;;;3.00;0.60;;;13.20;99.90;;;;;;4951313;28;20750;-24
2023/10/30 05:01:35;;;;;;;3.00;0.80;;;13.20;99.90;;;;;;4949907;28;20026;-24
2023/10/30 05:04:02;;;;;;;3.13;0.73;;;13.20;99.90;;;;;;4915657;28;20445;-24
2023/10/30 05:06:27;;;;;;;2.85;0.57;;;13.20;99.90;;;;;;4943424;28;20031;-24
2023/10/30 05:08:53;;;;;;;1.13;0.50;;;13.20;99.90;;;;;;4919259;28;20619;-24
2023/10/30 05:11:19;;;;;;;1.77;0.80;;;13.20;99.90;;;;;;4950807;28;20252;-24
2023/10/30 05:13:45;;;;;;;2.57;0.67;;;13.20;99.90;;;;;;4945209;28;20043;-24
2023/10/30 05:16:11;;;;;;;1.77;0.60;;;13.20;99.90;;;;;;4934880;28;20325;-24
2023/10/30 05:18:36;;;;;;;1.73;0.60;;;13.20;99.90;;;;;;4943918;28;20074;-24
2023/10/30 05:21:02;;;;;;;1.30;0.40;;;13.10;99.90;;;;;;4934323;28;20078;-24
2023/10/30 05:23:28;;;;;;;3.33;1.17;;;13.20;99.90;;;;;;4961246;28;20100;-24
2023/10/30 05:25:53;;;;;;;2.45;0.52;;;13.20;99.90;;;;;;4921486;28;20070;-24
2023/10/30 05:28:19;;;;;;;1.47;0.60;;;13.10;99.90;;;;;;4948696;28;20664;-24
2023/10/30 05:30:45;;;;;;;2.70;0.60;;;13.10;99.90;;;;;;4929308;28;20051;-24
2023/10/30 05:33:11;;;;;;;4.33;0.90;;;13.10;99.90;;;;;;4944867;28;20142;-24
2023/10/30 05:35:36;;;;;;;1.67;0.50;;;13.10;99.90;;;;;;4934179;28;20361;-24
2023/10/30 05:38:05;;;;;;;1.15;0.55;;;13.10;99.90;;;;;;4942652;28;20042;-24
2023/10/30 05:40:30;;;;;;;1.80;0.60;;;12.40;99.90;;;;;;4921390;28;20592;-24
2023/10/30 05:42:56;;;;;;;2.10;0.57;;;13.10;99.90;;;;;;4947150;28;20030;-24
2023/10/30 05:45:22;;;;;;;1.17;0.82;;;13.00;99.90;;;;;;4955315;28;20193;-24
2023/10/30 05:47:48;;;;;;;1.60;0.70;;;13.00;99.90;;;;;;4960897;28;20694;-22
2023/10/30 05:50:14;;;;;;;1.83;0.50;;;13.00;99.90;;;;;;4939581;28;20631;-22
2023/10/30 05:52:39;;;;;;;1.30;0.50;;;13.00;99.90;;;;;;4940996;28;20130;-22
2023/10/30 05:55:07;;;;;;;5.75;1.08;;;13.00;99.90;;;;;;4945717;28;20030;-22
2023/10/30 05:57:34;;;;;;;1.58;0.68;;;13.00;99.90;;;;;;4915841;28;20046;-22
2023/10/30 06:00:00;;;;;;;1.30;0.50;;;12.90;99.90;;;;;;4938480;28;20117;-22
2023/10/30 06:02:26;;;;;;;3.10;0.60;;;12.80;99.90;;;;;;4927061;28;20121;-22
2023/10/30 06:04:52;;;;;;;2.03;0.63;;;13.00;99.90;;;;;;4939318;28;20126;-22
2023/10/30 06:07:17;;;;;;;2.72;0.70;;;13.00;99.90;;;;;;4939228;28;20489;-22
2023/10/30 06:09:45;;;;;;;2.67;0.70;;;12.90;99.90;;;;;;4933713;28;20035;-22
2023/10/30 06:12:11;;;;;;;1.70;0.50;;;13.00;99.90;;;;;;4920886;28;21351;-22
2023/10/30 06:14:36;;;;;;;1.70;0.70;;;12.90;99.90;;;;;;4966687;28;20082;-22
2023/10/30 06:17:03;;;;;;;1.90;0.50;;;12.90;99.90;;;;;;4949660;28;20024;-22
2023/10/30 06:19:28;;;;;;;2.42;0.55;;;12.90;99.90;;;;;;4948527;28;20079;-22
2023/10/30 06:21:54;;;;;;;2.78;0.65;;;12.90;99.90;;;;;;4943372;28;20031;-22
2023/10/30 06:24:20;;;;;;;5.43;0.97;;;12.90;99.90;;;;;;4914957;28;20081;-22
2023/10/30 06:26:45;;;;;;;2.55;0.65;;;12.90;99.90;;;;;;4959690;28;20050;-22
2023/10/30 06:29:11;;;;;;;4.40;0.90;;;12.60;99.90;;;;;;4918753;28;20307;-22
2023/10/30 06:31:37;;;;;;;3.45;0.70;;;12.80;99.90;;;;;;4949068;28;20151;-22
2023/10/30 06:34:03;;;;;;;4.23;0.70;;;12.80;99.90;;;;;;4927921;28;20319;-22
2023/10/30 06:36:28;;;;;;;2.65;0.50;;;12.80;99.90;;;;;;4961510;28;20047;-22
2023/10/30 06:38:57;;;;;;;3.20;0.70;;;12.80;99.90;;;;;;4932460;28;20362;-23
2023/10/30 06:41:23;;;;;;;2.65;0.60;;;12.80;99.90;;;;;;4927908;28;20067;-24
2023/10/30 06:43:49;;;;;;;1.50;0.80;;;12.80;99.90;;;;;;4916100;28;20046;-24
2023/10/30 06:46:15;;;;;;;2.20;0.80;;;12.80;99.90;;;;;;4918586;28;20019;-24
2023/10/30 06:48:41;;;;;;;1.98;0.90;;;12.80;99.90;;;;;;4960728;28;20033;-24
2023/10/30 06:51:07;;;;;;;2.42;0.70;;;12.80;99.90;;;;;;4940510;28;20150;-24
2023/10/30 06:53:33;;;;;;;3.17;0.63;;;12.80;99.90;;;;;;4944585;28;20111;-24
2023/10/30 06:55:58;;;;;;;2.37;0.70;;;12.80;99.90;;;;;;4945473;28;20128;-24
2023/10/30 06:58:24;;;;;;;2.28;0.65;;;12.80;99.90;;;;;;4959374;28;20408;-24
2023/10/30 07:00:51;;;;;;;3.07;0.60;;;12.50;99.90;;;;;;4907564;28;20105;-24
2023/10/30 07:03:17;;;;;;;1.92;0.80;;;12.80;99.90;;;;;;4940978;28;20725;-24
2023/10/30 07:05:43;;;;;;;2.80;0.80;;;12.80;99.90;;;;;;4944644;28;20049;-24
2023/10/30 07:08:09;;;;;;;2.50;0.77;;;12.80;99.90;;;;;;4945075;28;20233;-24
2023/10/30 07:10:35;;;;;;;1.33;0.70;;;12.40;99.90;;;;;;4944348;28;20109;-24
2023/10/30 07:13:01;;;;;;;4.55;0.95;;;12.00;99.90;;;;;;4932598;28;20042;-24
2023/10/30 07:15:27;;;;;;;1.87;0.83;;;12.90;99.90;;;;;;4913867;28;20030;-24
2023/10/30 07:17:56;;;;;;;3.03;0.70;;;12.90;99.90;;;;;;4938852;28;20086;-24
2023/10/30 07:20:22;;;;;;;2.05;0.70;;;12.90;99.90;;;;;;4943723;28;20051;-24
2023/10/30 07:22:49;;;;;;;2.67;0.80;;;12.90;99.90;;;;;;4949612;28;20564;-24
2023/10/30 07:25:14;;;;;;;2.47;0.60;;;12.10;99.90;;;;;;4934490;28;20104;-26
2023/10/30 07:27:40;;;;;;;3.55;0.80;;;13.00;99.90;;;;;;4934067;28;20117;-26
2023/10/30 07:30:08;;;;;;;1.58;0.73;;;13.10;99.90;;;;;;4931348;28;20038;-26
2023/10/30 07:32:34;;;;;;;2.97;0.70;;;13.20;99.90;;;;;;4925131;28;20237;-24
2023/10/30 07:35:00;;;;;;;3.05;0.70;;;13.20;99.90;;;;;;4937265;28;20154;-24
2023/10/30 07:37:27;;;;;;;1.83;0.60;;;13.40;99.90;;;;;;4936864;28;20031;-24
2023/10/30 07:39:53;;;;;;;3.13;0.77;;;13.40;99.90;;;;;;4938688;28;20100;-24
2023/10/30 07:42:18;;;;;;;2.37;0.70;;;13.50;99.90;;;;;;4938791;28;20031;-24
2023/10/30 07:44:44;;;;;;;2.95;0.88;;;13.60;99.90;;;;;;4943274;28;20046;-24
2023/10/30 07:47:10;;;;;;;2.07;0.60;;;13.60;99.90;;;;;;4911707;28;20070;-24
2023/10/30 07:49:35;;;;;;;4.63;1.00;;;13.70;99.90;;;;;;4940983;28;20838;-24
2023/10/30 07:52:01;;;;;;;2.23;0.60;;;13.60;99.90;;;;;;4931409;28;20141;-24
2023/10/30 07:54:27;;;;;;;3.15;0.70;;;13.60;99.90;;;;;;4937455;28;21309;-24
2023/10/30 07:56:53;;;;;;;1.98;0.68;;;13.70;99.90;;;;;;4945722;28;20034;-24
2023/10/30 07:59:19;;;;;;;3.60;0.80;;;13.70;99.90;;;;;;4937803;28;20034;-24
2023/10/30 08:01:45;;;;;;;2.40;0.70;;;13.70;99.90;;;;;;4896557;28;20691;-24
2023/10/30 08:04:12;;;;;;;3.63;1.08;;;13.80;99.90;;;;;;4957793;28;20055;-24
2023/10/30 08:06:38;;;;;;;2.30;0.47;;;12.40;99.90;;;;;;4941795;28;20145;-24
2023/10/30 08:09:05;;;;;;;1.77;0.60;;;13.90;99.90;;;;;;4933067;28;20512;-24
2023/10/30 08:11:32;;;;;;;2.53;0.73;;;14.20;99.90;;;;;;4937311;28;20913;-24
2023/10/30 08:13:58;;;;;;;2.70;0.60;;;14.00;99.90;;;;;;4950543;28;20492;-24
2023/10/30 08:16:23;;;;;;;3.60;0.68;;;14.00;99.90;;;;;;4951852;28;20045;-24
2023/10/30 08:18:49;;;;;;;1.93;1.07;;;14.10;99.90;;;;;;4926700;28;20172;-24
2023/10/30 08:21:15;;;;;;;1.40;0.70;;;14.20;99.90;;;;;;4932022;28;20761;-24
2023/10/30 08:23:41;;;;;;;1.92;0.70;;;14.20;99.90;;;;;;4932438;28;21806;-24
2023/10/30 08:26:07;;;;;;;2.17;0.60;;;14.30;99.90;;;;;;4950391;28;20058;-25
2023/10/30 08:28:33;;;;;;;1.83;0.80;;;14.30;99.90;;;;;;4939524;28;20137;-24
2023/10/30 08:30:59;;;;;;;1.42;0.65;;;14.40;99.90;;;;;;4949118;28;20043;-24
2023/10/30 08:33:24;;;;;;;1.97;0.77;;;14.40;99.90;;;;;;4921384;28;20094;-24
2023/10/30 08:35:50;;;;;;;2.28;0.80;;;14.40;99.90;;;;;;4929823;28;20231;-24
2023/10/30 08:38:16;;;;;;;2.70;0.80;;;14.50;99.90;;;;;;4961575;28;20094;-24
2023/10/30 08:40:41;;;;;;;3.17;0.70;;;14.50;99.90;;;;;;4938236;28;20755;-24
2023/10/30 08:43:07;;;;;;;2.13;0.80;;;14.60;99.90;;;;;;4943740;28;20759;-24
2023/10/30 08:45:33;;;;;;;2.88;0.70;;;15.90;99.90;;;;;;4935881;28;20053;-24
2023/10/30 08:47:58;;;;;;;2.53;0.80;;;14.70;99.90;;;;;;4911022;28;20029;-24
2023/10/30 08:50:24;;;;;;;3.15;0.80;;;14.80;99.90;;;;;;4938952;28;20031;-24
2023/10/30 08:52:50;;;;;;;1.70;0.60;;;14.70;99.90;;;;;;4948915;28;20054;-24
2023/10/30 08:55:16;;;;;;;3.20;0.73;;;14.60;99.90;;;;;;4928732;28;20034;-24
2023/10/30 08:57:42;;;;;;;1.90;0.80;;;14.80;99.90;;;;;;4942928;28;20463;-24
2023/10/30 09:00:08;;;;;;;1.58;0.65;;;14.80;99.90;;;;;;4931209;28;20019;-22
2023/10/30 09:02:34;;;;;;;2.03;0.82;;;14.80;99.90;;;;;;4939549;28;20054;-23
2023/10/30 09:05:00;;;;;;;1.87;0.67;;;14.90;99.90;;;;;;4917366;28;20027;-23
2023/10/30 09:07:26;;;;;;;2.30;0.70;;;14.90;99.90;;;;;;4949215;28;20035;-22
2023/10/30 09:09:51;;;;;;;1.75;0.68;;;14.90;99.90;;;;;;4930286;28;20033;-23
2023/10/30 09:12:17;;;;;;;2.03;0.70;;;14.90;99.90;;;;;;4947322;28;20169;-22
2023/10/30 09:14:43;;;;;;;2.20;0.70;;;14.90;99.90;;;;;;4944236;28;20035;-23
2023/10/30 09:17:09;;;;;;;2.20;0.80;;;15.40;99.90;;;;;;4931588;28;20340;-22
2023/10/30 09:19:38;;;;;;;3.03;0.80;;;14.90;99.90;;;;;;4933538;28;20800;-22
2023/10/30 09:22:04;;;;;;;1.08;0.75;;;14.90;99.90;;;;;;4934345;28;20035;-21
2023/10/30 09:24:30;;;;;;;1.20;0.70;;;14.90;99.90;;;;;;4954094;28;20065;-21
2023/10/30 09:26:56;;;;;;;3.90;0.77;;;14.90;99.90;;;;;;4953796;28;20345;-21
2023/10/30 09:29:21;;;;;;;0.70;0.65;;;14.90;99.90;;;;;;4948920;28;20122;-22
2023/10/30 09:31:49;;;;;;;1.43;0.73;;;14.90;99.90;;;;;;4961060;28;20027;-22
2023/10/30 09:34:18;;;;;;;2.25;1.00;;;14.90;99.90;;;;;;4921274;28;20043;-22
2023/10/30 09:36:44;;;;;;;1.67;0.60;;;14.80;99.90;;;;;;4933828;28;20042;-21
2023/10/30 09:39:09;;;;;;;1.60;0.60;;;16.00;99.90;;;;;;4950041;28;20031;-22
2023/10/30 09:41:43;;;;;;;2.28;0.65;;;15.50;99.90;;;;;;4933254;28;20035;-22
2023/10/30 09:44:10;;;;;;;1.05;0.68;;;14.80;99.90;;;;;;4946550;28;20038;-22
2023/10/30 09:46:39;;;;;;;1.00;0.50;;;14.80;99.90;;;;;;4952737;28;20273;-21
2023/10/30 09:49:05;;;;;;;2.50;0.82;;;14.80;99.90;;;;;;4928752;28;20039;-22
2023/10/30 09:51:32;;;;;;;2.03;0.63;;;14.80;99.90;;;;;;4910614;28;20520;-21
2023/10/30 09:53:59;;;;;;;1.85;0.65;;;14.80;99.90;;;;;;4952026;28;20098;-20
2023/10/30 09:56:26;;;;;;;1.35;0.77;;;14.80;99.90;;;;;;4937363;28;20995;-21
2023/10/30 09:58:53;;;;;;;2.10;0.77;;;14.80;99.90;;;;;;4965302;28;20033;-21
2023/10/30 10:01:20;;;;;;;1.63;0.82;;;14.80;99.90;;;;;;4922810;28;20199;-21
2023/10/30 10:03:46;;;;;;;2.72;0.90;;;14.80;99.90;;;;;;4934700;28;20439;-20
2023/10/30 10:06:12;;;;;;;2.65;1.25;;;14.80;99.90;;;;;;4904167;28;20057;-22
2023/10/30 10:08:41;;;;;;;3.00;0.80;;;14.20;99.90;;;;;;4932875;28;20569;-24
2023/10/30 10:11:07;;;;;;;1.53;0.63;;;15.00;99.90;;;;;;4925002;28;20066;-23
2023/10/30 10:13:33;;;;;;;1.42;0.70;;;15.00;99.90;;;;;;4943079;28;20289;-24
2023/10/30 10:16:01;;;;;;;1.73;0.80;;;15.10;99.90;;;;;;4943849;28;20030;-24
2023/10/30 10:18:31;;;;;;;1.77;0.70;;;15.20;99.90;;;;;;4928124;28;20171;-24
2023/10/30 10:20:59;;;;;;;1.70;0.65;;;15.30;99.90;;;;;;4948067;28;20050;-24
2023/10/30 10:23:25;;;;;;;3.13;0.70;;;15.30;99.90;;;;;;4917164;28;20030;-24
2023/10/30 10:25:56;;;;;;;2.83;0.82;;;15.40;99.90;;;;;;4949006;28;20370;-24
2023/10/30 10:28:26;;;;;;;2.45;0.80;;;16.90;99.90;;;;;;4929204;28;20161;-20
2023/10/30 10:30:53;;;;;;;2.10;0.70;;;15.50;99.90;;;;;;4938681;28;20082;-21
2023/10/30 10:33:27;;;;;;;2.33;0.75;;;15.60;99.90;;;;;;4930213;28;20130;-21
2023/10/30 10:36:02;;;;;;;2.00;0.80;;;15.60;99.90;;;;;;4928695;28;20035;-21
2023/10/30 10:38:28;;;;;;;2.60;0.75;;;15.60;99.90;;;;;;4913060;28;20467;-21
2023/10/30 10:40:55;;;;;;;1.20;0.80;;;15.70;99.90;;;;;;4929594;28;20027;-21
2023/10/30 10:43:23;;;;;;;1.10;0.60;;;15.70;99.90;;;;;;4935747;28;20114;-21
2023/10/30 10:45:54;;;;;;;1.85;0.70;;;15.70;99.90;;;;;;4952782;28;20043;-21
2023/10/30 10:48:22;;;;;;;3.05;0.95;;;15.80;99.90;;;;;;4927465;28;20074;-21
2023/10/30 10:50:48;;;;;;;1.08;0.65;;;15.80;99.90;;;;;;4960368;28;20552;-21
2023/10/30 10:53:19;;;;;;;1.70;0.53;;;15.90;99.90;;;;;;4904423;28;20110;-22
2023/10/30 10:55:47;;;;;;;1.00;0.50;;;15.90;99.90;;;;;;4942263;28;20149;-20
2023/10/30 10:58:23;;;;;;;1.65;0.70;;;15.90;99.90;;;;;;4934144;28;20042;-22
2023/10/30 11:00:50;;;;;;;1.13;0.60;;;15.90;99.90;;;;;;4953337;28;20075;-21
2023/10/30 11:03:17;;;;;;;1.05;0.60;;;15.90;99.90;;;;;;4939954;28;20762;-20
2023/10/30 11:05:45;;;;;;;1.03;0.60;;;15.90;99.90;;;;;;4941961;28;20045;-21
2023/10/30 11:08:11;;;;;;;1.38;0.40;;;15.90;99.90;;;;;;4918272;28;20031;-22
2023/10/30 11:11:05;;;;;;;2.35;0.75;;;15.90;99.90;;;;;;4936517;28;20111;-21
2023/10/30 11:13:38;;;;;;;1.48;0.77;;;15.90;99.90;;;;;;4931423;28;20054;-20
2023/10/30 11:16:21;;;;;;;1.50;0.50;;;15.90;99.90;;;;;;4947309;28;20504;-21
2023/10/30 11:18:51;;;;;;;0.80;0.50;;;15.80;99.90;;;;;;4938950;28;20564;-24
2023/10/30 11:21:16;;;;;;;0.75;0.45;;;15.80;99.90;;;;;;4947679;28;20039;-24
2023/10/30 11:23:52;;;;;;;0.63;0.50;;;15.80;99.90;;;;;;4907647;28;20058;-24
2023/10/30 11:26:30;;;;;;;1.85;0.65;;;15.80;99.90;;;;;;4934998;28;20572;-23
2023/10/30 11:28:59;;;;;;;1.70;0.87;;;15.70;99.90;;;;;;4917978;28;20776;-19
2023/10/30 11:31:29;;;;;;;1.33;0.50;;;15.60;99.90;;;;;;4962101;28;20142;-21
2023/10/30 11:34:12;;;;;;;2.33;0.60;;;15.60;99.90;;;;;;4948026;28;20110;-19
2023/10/30 11:36:39;;;;;;;1.00;0.40;;;14.70;99.90;;;;;;4931445;28;20133;-19
2023/10/30 11:39:10;;;;;;;1.05;0.50;;;15.60;99.90;;;;;;4940230;28;20055;-23
2023/10/30 11:41:38;;;;;;;1.13;0.40;;;15.60;99.90;;;;;;4924375;28;20031;-23
2023/10/30 11:44:13;;;;;;;1.25;0.65;;;15.60;99.90;;;;;;4935479;28;20038;-22
2023/10/30 11:46:43;;;;;;;1.13;0.40;;;15.60;99.90;;;;;;4964320;28;20027;-22
2023/10/30 11:49:11;;;;;;;0.32;0.30;;;15.60;99.90;;;;;;4949289;28;20030;-22
2023/10/30 11:51:38;;;;;;;0.63;0.50;;;15.50;99.90;;;;;;4937570;28;20086;-22
2023/10/30 11:54:03;;;;;;;1.03;0.53;;;15.50;99.90;;;;;;4940024;28;20031;-22
2023/10/30 11:56:29;;;;;;;0.93;0.47;;;15.50;99.90;;;;;;4933705;28;20114;-22
2023/10/30 11:58:56;;;;;;;1.83;0.70;;;15.50;99.90;;;;;;4929951;28;20156;-22
2023/10/30 12:01:22;;;;;;;1.80;0.60;;;15.60;99.90;;;;;;4941616;28;20027;-22
2023/10/30 12:03:48;;;;;;;1.60;0.60;;;15.60;99.90;;;;;;4949344;28;20402;-22
2023/10/30 12:06:14;;;;;;;2.05;0.70;;;15.60;99.90;;;;;;4936656;28;20117;-22
2023/10/30 12:08:39;;;;;;;1.93;0.80;;;15.60;99.90;;;;;;4943214;28;20125;-22
2023/10/30 12:11:05;;;;;;;1.90;0.77;;;15.60;99.90;;;;;;4904389;28;20169;-22
2023/10/30 12:13:31;;;;;;;2.57;0.80;;;15.60;99.90;;;;;;4939878;28;20026;-22
2023/10/30 12:15:57;;;;;;;1.05;0.60;;;15.60;99.90;;;;;;4932702;28;20031;-23
2023/10/30 12:18:23;;;;;;;1.23;0.60;;;15.70;99.90;;;;;;4959461;28;20047;-22
2023/10/30 12:20:49;;;;;;;1.23;0.57;;;15.70;99.90;;;;;;4931839;28;20074;-22
2023/10/30 12:23:16;;;;;;;1.25;0.57;;;15.70;99.90;;;;;;4958314;28;20034;-22
2023/10/30 12:25:43;;;;;;;2.22;0.70;;;15.70;99.90;;;;;;4942660;28;20134;-22
2023/10/30 12:28:08;;;;;;;0.70;0.55;;;15.70;99.90;;;;;;4927700;28;20106;-22
2023/10/30 12:30:35;;;;;;;1.43;0.50;;;15.80;99.90;;;;;;4946806;28;20046;-22
2023/10/30 12:33:01;;;;;;;1.92;0.70;;;15.80;99.90;;;;;;4953560;28;20167;-22
2023/10/30 12:35:27;;;;;;;1.15;0.70;;;15.70;99.90;;;;;;4941806;28;20069;-22
2023/10/30 12:37:52;;;;;;;2.20;0.90;;;15.90;99.90;;;;;;4918105;28;20113;-22
2023/10/30 12:40:18;;;;;;;2.03;0.88;;;15.90;99.90;;;;;;4932417;28;20033;-22
2023/10/30 12:42:46;;;;;;;1.03;0.90;;;15.90;99.90;;;;;;4927118;28;20032;-22
2023/10/30 12:45:17;;;;;;;1.53;0.70;;;16.00;99.90;;;;;;4938159;28;20345;-22